createdAt,value
2022-12-14T00:02:09.723Z,8.17
2022-12-14T00:04:56.265Z,7.17
2022-12-14T00:07:42.828Z,8.13
2022-12-14T00:10:29.303Z,8.43
2022-12-14T00:13:16.021Z,7.70
2022-12-14T00:16:02.596Z,7.13
2022-12-14T00:18:49.191Z,7.33
2022-12-14T00:21:35.669Z,8.03
2022-12-14T00:24:22.209Z,7.87
2022-12-14T00:27:08.711Z,8.43
2022-12-14T00:29:55.248Z,7.63
2022-12-14T00:32:41.760Z,8.40
2022-12-14T00:35:28.287Z,8.27
2022-12-14T00:38:14.920Z,8.53
2022-12-14T00:41:01.427Z,7.03
2022-12-14T00:43:49.747Z,7.37
2022-12-14T00:46:36.563Z,8.73
2022-12-14T00:49:23.111Z,8.70
2022-12-14T00:52:09.820Z,7.90
2022-12-14T00:54:56.338Z,8.90
2022-12-14T00:57:43.981Z,8.40
2022-12-14T01:00:30.491Z,7.53
2022-12-14T01:03:17.080Z,7.87
2022-12-14T01:06:03.626Z,7.40
2022-12-14T01:08:50.165Z,8.20
2022-12-14T01:11:36.710Z,8.20
2022-12-14T01:14:23.228Z,8.80
2022-12-14T01:17:09.748Z,8.10
2022-12-14T01:19:56.288Z,8.67
2022-12-14T01:22:42.797Z,9.17
2022-12-14T01:25:29.279Z,8.77
2022-12-14T01:28:15.835Z,8.23
2022-12-14T01:31:02.371Z,8.43
2022-12-14T01:33:48.931Z,9.03
2022-12-14T01:36:35.446Z,8.80
2022-12-14T01:39:21.947Z,7.50
2022-12-14T01:42:08.465Z,8.60
2022-12-14T01:44:54.990Z,8.80
2022-12-14T01:47:41.479Z,9.33
2022-12-14T01:50:28.004Z,9.47
2022-12-14T01:53:14.518Z,9.80
2022-12-14T01:56:01.073Z,9.87
2022-12-14T01:58:47.591Z,10.07
2022-12-14T02:01:34.249Z,9.27
2022-12-14T02:04:20.807Z,8.63
2022-12-14T02:07:07.361Z,8.87
2022-12-14T02:09:53.876Z,10.10
2022-12-14T02:12:40.435Z,9.73
2022-12-14T02:15:26.957Z,9.47
2022-12-14T02:18:13.500Z,11.27
2022-12-14T02:21:00.016Z,10.00
2022-12-14T02:23:46.540Z,9.70
2022-12-14T02:26:33.052Z,10.53
2022-12-14T02:29:19.576Z,10.03
2022-12-14T02:32:06.084Z,10.53
2022-12-14T02:34:52.768Z,10.67
2022-12-14T02:37:39.255Z,10.43
2022-12-14T02:40:25.796Z,10.00
2022-12-14T02:43:12.303Z,10.60
2022-12-14T02:45:58.779Z,9.93
2022-12-14T02:48:45.320Z,9.57
2022-12-14T02:51:31.792Z,10.17
2022-12-14T02:54:18.336Z,8.97
2022-12-14T02:57:04.852Z,9.53
2022-12-14T02:59:51.383Z,9.37
2022-12-14T03:02:37.952Z,9.53
2022-12-14T03:05:24.545Z,9.80
2022-12-14T03:08:11.212Z,9.87
2022-12-14T03:10:57.689Z,9.80
2022-12-14T03:13:44.211Z,10.13
2022-12-14T03:16:30.794Z,9.43
2022-12-14T03:19:17.345Z,10.27
2022-12-14T03:22:03.920Z,10.20
2022-12-14T03:24:50.440Z,10.20
2022-12-14T03:27:36.967Z,9.93
2022-12-14T03:30:51.360Z,9.10
2022-12-14T03:33:30.329Z,9.30
2022-12-14T03:36:17.221Z,9.47
2022-12-14T03:39:03.698Z,9.97
2022-12-14T03:41:50.241Z,10.00
2022-12-14T03:44:43.305Z,9.63
2022-12-14T03:47:36.243Z,10.23
2022-12-14T03:50:22.756Z,9.87
2022-12-14T03:53:09.303Z,10.03
2022-12-14T03:55:55.820Z,9.73
2022-12-14T03:58:42.359Z,10.33
2022-12-14T04:01:28.942Z,9.70
2022-12-14T04:04:15.560Z,10.20
2022-12-14T04:07:02.035Z,9.87
2022-12-14T04:09:48.579Z,10.30
2022-12-14T04:12:35.082Z,10.13
2022-12-14T04:15:21.620Z,10.10
2022-12-14T04:18:08.120Z,10.70
2022-12-14T04:20:54.652Z,10.50
2022-12-14T04:23:41.147Z,10.60
2022-12-14T04:26:28.932Z,10.87
2022-12-14T04:29:15.415Z,11.10
2022-12-14T04:32:02.062Z,11.23
2022-12-14T04:34:49.649Z,10.97
2022-12-14T04:37:36.196Z,10.47
2022-12-14T04:40:23.735Z,11.10
2022-12-14T04:43:10.260Z,11.10
2022-12-14T04:45:56.816Z,11.13
2022-12-14T04:48:43.443Z,10.87
2022-12-14T04:51:29.920Z,10.23
2022-12-14T04:54:16.460Z,9.97
2022-12-14T04:57:02.964Z,10.20
2022-12-14T04:59:49.505Z,11.10
2022-12-14T05:02:36.143Z,10.77
2022-12-14T05:05:22.810Z,10.07
2022-12-14T05:08:09.320Z,9.87
2022-12-14T05:11:09.797Z,10.53
2022-12-14T05:14:02.348Z,10.27
2022-12-14T05:16:49.213Z,10.67
2022-12-14T05:19:35.822Z,10.10
2022-12-14T05:22:22.323Z,10.50
2022-12-14T05:25:08.788Z,10.23
2022-12-14T05:27:55.328Z,9.53
2022-12-14T05:30:41.901Z,10.87
2022-12-14T05:33:28.706Z,9.90
2022-12-14T05:36:15.461Z,9.57
2022-12-14T05:39:01.999Z,9.40
2022-12-14T05:41:48.517Z,10.43
2022-12-14T05:44:35.056Z,10.53
2022-12-14T05:47:21.563Z,10.23
2022-12-14T05:50:08.104Z,10.70
2022-12-14T05:52:54.635Z,11.80
2022-12-14T05:55:41.189Z,12.93
2022-12-14T05:58:27.704Z,12.20
2022-12-14T06:01:19.060Z,13.17
2022-12-14T06:04:06.297Z,12.70
2022-12-14T06:06:52.895Z,12.50
2022-12-14T06:09:39.411Z,12.47
2022-12-14T06:12:25.944Z,11.90
2022-12-14T06:15:12.421Z,11.83
2022-12-14T06:17:58.992Z,11.00
2022-12-14T06:20:45.476Z,11.47
2022-12-14T06:23:32.015Z,11.47
2022-12-14T06:26:18.526Z,12.43
2022-12-14T06:29:05.075Z,12.00
2022-12-14T06:31:51.582Z,11.50
2022-12-14T06:34:39.949Z,11.90
2022-12-14T06:37:28.726Z,12.37
2022-12-14T06:40:15.222Z,11.80
2022-12-14T06:43:01.744Z,12.67
2022-12-14T06:45:48.248Z,12.00
2022-12-14T06:48:34.813Z,11.97
2022-12-14T06:51:21.310Z,12.27
2022-12-14T06:54:07.855Z,12.00
2022-12-14T06:56:54.368Z,12.80
2022-12-14T06:59:40.900Z,11.87
2022-12-14T07:02:27.567Z,12.23
2022-12-14T07:05:14.215Z,11.20
2022-12-14T07:08:00.756Z,11.50
2022-12-14T07:10:47.223Z,12.07
2022-12-14T07:13:33.750Z,11.73
2022-12-14T07:16:20.340Z,11.53
2022-12-14T07:19:06.872Z,11.63
2022-12-14T07:21:53.408Z,13.10
2022-12-14T07:24:39.920Z,12.67
2022-12-14T07:27:26.437Z,12.10
2022-12-14T07:30:12.978Z,12.57
2022-12-14T07:32:59.490Z,11.70
2022-12-14T07:35:46.014Z,12.53
2022-12-14T07:38:32.627Z,12.00
2022-12-14T07:41:22.682Z,12.37
2022-12-14T07:44:09.760Z,12.73
2022-12-14T07:46:56.313Z,12.07
2022-12-14T07:49:42.888Z,12.73
2022-12-14T07:52:34.183Z,13.20
2022-12-14T07:55:23.753Z,12.03
2022-12-14T07:58:10.228Z,12.33
2022-12-14T08:00:56.772Z,13.37
2022-12-14T08:03:43.270Z,13.77
2022-12-14T08:06:29.819Z,13.40
2022-12-14T08:09:16.333Z,14.03
2022-12-14T08:12:02.854Z,19.80
2022-12-14T08:14:49.399Z,21.43
2022-12-14T08:17:35.894Z,20.30
2022-12-14T08:20:22.474Z,18.83
2022-12-14T08:23:08.983Z,17.57
2022-12-14T08:25:55.498Z,14.03
2022-12-14T08:28:42.310Z,13.70
2022-12-14T08:31:28.947Z,13.00
2022-12-14T08:34:15.521Z,13.27
2022-12-14T08:37:02.100Z,16.43
2022-12-14T08:39:49.635Z,16.97
2022-12-14T08:42:36.261Z,23.73
2022-12-14T08:45:22.769Z,23.40
2022-12-14T08:48:09.300Z,14.97
2022-12-14T08:50:55.815Z,13.57
2022-12-14T08:53:42.385Z,14.87
2022-12-14T08:56:28.888Z,13.73
2022-12-14T08:59:30.304Z,12.87
2022-12-14T09:02:21.982Z,12.93
2022-12-14T09:05:08.560Z,13.23
2022-12-14T09:07:55.059Z,13.23
2022-12-14T09:10:41.588Z,13.63
2022-12-14T09:13:28.413Z,13.43
2022-12-14T09:16:15.268Z,12.97
2022-12-14T09:19:01.768Z,13.00
2022-12-14T09:21:48.396Z,12.30
2022-12-14T09:24:34.935Z,13.40
2022-12-14T09:27:21.473Z,13.60
2022-12-14T09:30:07.993Z,13.90
2022-12-14T09:32:54.480Z,12.80
2022-12-14T09:35:41.027Z,12.97
2022-12-14T09:38:27.571Z,13.30
2022-12-14T09:41:14.078Z,13.30
2022-12-14T09:44:00.596Z,13.93
2022-12-14T09:46:47.239Z,13.23
2022-12-14T09:49:33.776Z,12.63
2022-12-14T09:52:20.327Z,13.27
2022-12-14T09:55:06.834Z,12.47
2022-12-14T09:57:53.378Z,12.97
2022-12-14T10:00:39.887Z,13.07
2022-12-14T10:03:26.713Z,11.80
2022-12-14T10:06:13.379Z,12.63
2022-12-14T10:08:59.912Z,13.50
2022-12-14T10:11:46.382Z,12.10
2022-12-14T10:14:32.903Z,11.77
2022-12-14T10:17:19.411Z,12.10
2022-12-14T10:20:05.919Z,12.67
2022-12-14T10:22:52.434Z,12.20
2022-12-14T10:25:38.960Z,11.90
2022-12-14T10:28:25.467Z,12.07
2022-12-14T10:31:12.008Z,11.90
2022-12-14T10:33:58.555Z,9.63
2022-12-14T10:36:45.085Z,12.27
2022-12-14T10:39:32.280Z,11.63
2022-12-14T10:42:18.819Z,11.47
2022-12-14T10:45:31.464Z,12.03
2022-12-14T10:48:11.782Z,12.03
2022-12-14T10:50:58.407Z,12.67
2022-12-14T10:53:44.926Z,12.17
2022-12-14T10:56:31.470Z,11.67
2022-12-14T10:59:18.049Z,12.47
2022-12-14T11:02:04.764Z,12.90
2022-12-14T11:04:51.570Z,12.50
2022-12-14T11:07:38.100Z,13.67
2022-12-14T11:10:24.617Z,11.47
2022-12-14T11:13:11.160Z,12.20
2022-12-14T11:15:57.683Z,11.37
2022-12-14T11:18:44.199Z,11.73
2022-12-14T11:21:30.753Z,11.70
2022-12-14T11:24:17.296Z,11.97
2022-12-14T11:27:03.834Z,12.43
2022-12-14T11:29:50.361Z,12.27
2022-12-14T11:32:36.873Z,12.30
2022-12-14T11:35:23.346Z,11.53
2022-12-14T11:38:09.883Z,11.47
2022-12-14T11:40:56.396Z,12.00
2022-12-14T11:43:42.940Z,11.37
2022-12-14T11:46:29.487Z,11.87
2022-12-14T11:49:16.081Z,11.50
2022-12-14T11:52:02.586Z,12.13
2022-12-14T11:54:50.262Z,10.60
2022-12-14T11:57:36.947Z,12.07
2022-12-14T12:00:23.464Z,11.60
2022-12-14T12:03:10.000Z,11.77
2022-12-14T12:05:56.558Z,11.47
2022-12-14T12:08:43.086Z,12.00
2022-12-14T12:11:29.564Z,11.90
2022-12-14T12:14:16.124Z,10.43
2022-12-14T12:17:03.664Z,10.63
2022-12-14T12:19:50.215Z,10.27
2022-12-14T12:22:36.736Z,10.07
2022-12-14T12:25:27.523Z,9.97
2022-12-14T12:28:15.195Z,10.93
2022-12-14T12:31:04.890Z,9.60
2022-12-14T12:33:53.911Z,11.13
2022-12-14T12:36:56.910Z,10.33
2022-12-14T12:39:46.909Z,11.00
2022-12-14T12:42:33.457Z,10.60
2022-12-14T12:45:19.981Z,10.93
2022-12-14T12:48:06.522Z,12.20
2022-12-14T12:50:53.122Z,10.53
2022-12-14T12:53:39.628Z,11.50
2022-12-14T12:56:26.141Z,10.43
2022-12-14T12:59:12.681Z,10.00
2022-12-14T13:01:59.270Z,9.47
2022-12-14T13:04:52.192Z,10.67
2022-12-14T13:07:39.124Z,10.63
2022-12-14T13:10:25.691Z,9.00
2022-12-14T13:13:12.228Z,9.20
2022-12-14T13:15:58.765Z,9.37
2022-12-14T13:21:51.832Z,8.53
2022-12-14T13:24:38.362Z,8.63
2022-12-14T13:27:24.872Z,8.77
2022-12-14T13:30:11.384Z,9.70
2022-12-14T13:32:57.891Z,9.53
2022-12-14T13:35:44.400Z,8.67
2022-12-14T13:38:33.401Z,9.07
2022-12-14T13:41:20.608Z,8.97
2022-12-14T13:44:07.122Z,9.90
2022-12-14T13:46:53.682Z,9.93
2022-12-14T13:49:40.240Z,10.30
2022-12-14T13:52:26.737Z,9.97
2022-12-14T13:55:13.293Z,9.50
2022-12-14T13:57:59.817Z,9.57
2022-12-14T14:00:46.333Z,10.60
2022-12-14T14:03:32.952Z,10.20
2022-12-14T14:06:19.576Z,11.43
2022-12-14T14:09:06.112Z,11.77
2022-12-14T14:11:52.636Z,9.40
2022-12-14T14:14:39.185Z,10.97
2022-12-14T14:17:25.811Z,10.90
2022-12-14T14:20:12.427Z,10.83
2022-12-14T14:22:58.949Z,12.07
2022-12-14T14:25:45.491Z,10.97
2022-12-14T14:28:35.358Z,9.17
2022-12-14T14:31:22.252Z,9.50
2022-12-14T14:34:08.815Z,9.57
2022-12-14T14:36:55.323Z,8.80
2022-12-14T14:40:05.941Z,8.83
2022-12-14T14:42:49.525Z,9.07
2022-12-14T14:45:36.024Z,8.63
2022-12-14T14:48:22.570Z,9.23
2022-12-14T14:51:09.080Z,9.83
2022-12-14T14:53:55.615Z,8.70
2022-12-14T14:56:42.136Z,9.93
2022-12-14T14:59:28.713Z,8.50
2022-12-14T15:02:15.232Z,8.70
2022-12-14T15:05:24.866Z,9.10
2022-12-14T15:08:08.298Z,9.13
2022-12-14T15:10:54.807Z,9.87
2022-12-14T15:13:41.320Z,9.60
2022-12-14T15:16:27.901Z,9.67
2022-12-14T15:19:14.423Z,9.63
2022-12-14T15:22:00.969Z,9.67
2022-12-14T15:24:47.535Z,9.17
2022-12-14T15:27:34.084Z,9.70
2022-12-14T15:30:20.643Z,10.63
2022-12-14T15:33:07.130Z,13.73
2022-12-14T15:35:53.751Z,11.87
2022-12-14T15:38:40.288Z,11.57
2022-12-14T15:41:27.005Z,12.77
2022-12-14T15:44:13.516Z,9.93
2022-12-14T15:47:00.050Z,8.90
2022-12-14T15:49:46.687Z,9.23
2022-12-14T15:52:33.203Z,9.43
2022-12-14T15:55:19.773Z,8.93
2022-12-14T15:58:06.286Z,9.20
2022-12-14T16:00:52.924Z,9.30
2022-12-14T16:03:39.485Z,10.53
2022-12-14T16:06:26.042Z,12.40
2022-12-14T16:09:12.559Z,15.87
2022-12-14T16:11:59.109Z,15.00
2022-12-14T16:14:45.616Z,14.60
2022-12-14T16:17:32.210Z,15.33
2022-12-14T16:20:18.773Z,14.90
2022-12-14T16:23:05.377Z,17.17
2022-12-14T16:25:51.904Z,16.70
2022-12-14T16:28:38.458Z,16.73
2022-12-14T16:31:25.005Z,17.33
2022-12-14T16:34:11.573Z,17.93
2022-12-14T16:37:30.499Z,19.07
2022-12-14T16:40:04.606Z,22.17
2022-12-14T16:42:51.117Z,21.37
2022-12-14T16:45:36.532Z,20.60
2022-12-14T16:48:23.154Z,19.97
2022-12-14T16:51:17.384Z,17.63
2022-12-14T16:54:04.427Z,18.67
2022-12-14T16:56:50.955Z,20.07
2022-12-14T16:59:37.495Z,20.00
2022-12-14T17:02:24.223Z,19.37
2022-12-14T17:05:10.890Z,18.60
2022-12-14T17:07:57.450Z,17.83
2022-12-14T17:10:43.967Z,18.13
2022-12-14T17:13:30.840Z,18.93
2022-12-14T17:16:17.737Z,19.43
2022-12-14T17:19:04.302Z,19.27
2022-12-14T17:21:50.815Z,19.53
2022-12-14T17:24:37.396Z,20.63
2022-12-14T17:27:23.909Z,19.57
2022-12-14T17:30:10.464Z,20.97
2022-12-14T17:32:56.936Z,19.87
2022-12-14T17:35:43.449Z,21.00
2022-12-14T17:38:29.960Z,20.90
2022-12-14T17:41:16.655Z,20.63
2022-12-14T17:44:03.172Z,21.47
2022-12-14T17:46:49.750Z,20.80
2022-12-14T17:49:36.307Z,21.93
2022-12-14T17:52:22.800Z,22.43
2022-12-14T17:55:09.318Z,22.03
2022-12-14T17:57:55.864Z,22.47
2022-12-14T18:00:42.374Z,22.43
2022-12-14T18:03:29.225Z,24.03
2022-12-14T18:06:16.055Z,23.47
2022-12-14T18:09:02.551Z,24.73
2022-12-14T18:12:21.066Z,26.40
2022-12-14T18:14:55.562Z,24.47
2022-12-14T18:17:42.104Z,24.47
2022-12-14T18:20:28.627Z,23.37
2022-12-14T18:23:15.183Z,22.77
2022-12-14T18:26:01.683Z,22.70
2022-12-14T18:28:48.205Z,24.87
2022-12-14T18:31:34.755Z,24.27
2022-12-14T18:34:21.355Z,24.57
2022-12-14T18:37:08.549Z,23.80
2022-12-14T18:39:55.225Z,24.00
2022-12-14T18:42:41.740Z,23.47
2022-12-14T18:45:28.270Z,24.20
2022-12-14T18:48:14.815Z,25.17
2022-12-14T18:51:01.290Z,25.37
2022-12-14T18:53:47.827Z,26.83
2022-12-14T18:56:34.331Z,28.40
2022-12-14T18:59:20.868Z,27.20
2022-12-14T19:02:07.500Z,26.43
2022-12-14T19:04:54.121Z,26.13
2022-12-14T19:07:40.664Z,26.23
2022-12-14T19:10:27.246Z,24.93
2022-12-14T19:13:13.793Z,24.70
2022-12-14T19:16:00.350Z,27.63
2022-12-14T19:18:46.918Z,27.83
2022-12-14T19:21:33.447Z,29.20
2022-12-14T19:24:19.989Z,27.23
2022-12-14T19:27:06.491Z,26.90
2022-12-14T19:29:53.011Z,25.73
2022-12-14T19:32:39.546Z,27.87
2022-12-14T19:35:26.066Z,28.40
2022-12-14T19:38:12.577Z,27.80
2022-12-14T19:40:59.054Z,29.27
2022-12-14T19:43:45.596Z,27.70
2022-12-14T19:46:32.166Z,28.30
2022-12-14T19:49:18.710Z,28.43
2022-12-14T19:52:05.233Z,26.13
2022-12-14T19:54:51.875Z,27.23
2022-12-14T19:57:38.343Z,29.10
2022-12-14T20:00:24.884Z,27.70
2022-12-14T20:03:11.756Z,29.47
2022-12-14T20:05:58.391Z,29.53
2022-12-14T20:08:44.934Z,33.67
2022-12-14T20:11:35.985Z,26.97
2022-12-14T20:14:22.495Z,26.87
2022-12-14T20:17:09.025Z,26.03
2022-12-14T20:19:55.583Z,26.60
2022-12-14T20:22:43.158Z,26.37
2022-12-14T20:25:29.868Z,24.87
2022-12-14T20:28:16.395Z,25.77
2022-12-14T20:31:03.005Z,23.60
2022-12-14T20:33:49.546Z,21.33
2022-12-14T20:36:36.152Z,20.73
2022-12-14T20:39:22.642Z,20.23
2022-12-14T20:42:09.233Z,20.33
2022-12-14T20:44:55.782Z,18.40
2022-12-14T20:47:42.309Z,20.93
2022-12-14T20:50:28.857Z,24.00
2022-12-14T20:53:15.325Z,21.63
2022-12-14T20:56:01.877Z,23.50
2022-12-14T20:58:48.413Z,23.77
2022-12-14T21:01:35.021Z,24.60
2022-12-14T21:04:21.604Z,22.93
2022-12-14T21:07:08.145Z,23.47
2022-12-14T21:09:54.657Z,23.70
2022-12-14T21:12:41.196Z,23.33
2022-12-14T21:15:27.708Z,21.70
2022-12-14T21:18:14.245Z,23.50
2022-12-14T21:21:00.751Z,24.27
2022-12-14T21:23:47.287Z,22.43
2022-12-14T21:26:35.857Z,21.93
2022-12-14T21:29:22.392Z,21.53
2022-12-14T21:32:08.975Z,23.07
2022-12-14T21:34:55.526Z,22.30
2022-12-14T21:37:42.039Z,19.30
2022-12-14T21:40:28.577Z,19.90
2022-12-14T21:43:15.160Z,19.77
2022-12-14T21:46:01.743Z,20.30
2022-12-14T21:48:48.295Z,20.70
2022-12-14T21:51:34.841Z,21.73
2022-12-14T21:54:21.360Z,21.73
2022-12-14T21:57:07.908Z,21.20
2022-12-14T21:59:54.407Z,22.27
2022-12-14T22:02:41.194Z,21.73
2022-12-14T22:05:27.885Z,22.30
2022-12-14T22:08:14.432Z,21.90
2022-12-14T22:11:00.939Z,22.87
2022-12-14T22:13:47.641Z,21.43
2022-12-14T22:16:34.249Z,21.43
2022-12-14T22:19:20.849Z,20.10
2022-12-14T22:22:07.357Z,20.70
2022-12-14T22:24:53.903Z,20.70
2022-12-14T22:27:40.370Z,21.73
2022-12-14T22:30:31.442Z,21.70
2022-12-14T22:33:18.449Z,21.80
2022-12-14T22:36:05.000Z,21.73
2022-12-14T22:38:51.526Z,23.30
2022-12-14T22:41:38.048Z,21.93
2022-12-14T22:44:24.556Z,20.33
2022-12-14T22:47:11.109Z,21.00
2022-12-14T22:49:57.583Z,22.07
2022-12-14T22:52:44.121Z,22.53
2022-12-14T22:55:36.301Z,21.90
2022-12-14T22:58:22.845Z,21.10
2022-12-14T23:01:09.383Z,21.87
2022-12-14T23:03:57.263Z,20.90
2022-12-14T23:06:43.883Z,21.40
2022-12-14T23:09:30.478Z,21.13
2022-12-14T23:12:21.628Z,22.93
2022-12-14T23:15:08.614Z,20.60
2022-12-14T23:17:55.132Z,22.87
2022-12-14T23:20:41.676Z,21.43
2022-12-14T23:23:28.503Z,22.10
2022-12-14T23:26:15.364Z,21.77
2022-12-14T23:29:01.875Z,22.33
2022-12-14T23:31:48.396Z,22.60
2022-12-14T23:34:34.907Z,22.63
2022-12-14T23:37:21.420Z,22.97
2022-12-14T23:40:07.922Z,23.03
2022-12-14T23:42:54.462Z,23.20
2022-12-14T23:45:42.017Z,24.07
2022-12-14T23:48:28.673Z,23.97
2022-12-14T23:51:15.186Z,23.77
2022-12-14T23:54:01.728Z,23.67
2022-12-14T23:56:48.236Z,23.37
2022-12-14T23:59:34.782Z,24.37
